Weather at Holzdorf Air Base

Public forecast

Using degrees Celsius for public forecast. Weather courtesy of forecast.io.

Current aviation weather report (METAR) for Holzdorf Air Base

Retrieved 2020/09/19 15:20 UTC (27 minutes ago):

ETSH 191520Z 07008KT 9999 BKN260 22/02 Q1020 BLU+

Aviation forecast (TAF) for Holzdorf Air Base

Forecast is more than 12 hours old.

Retrieved 2019/06/12 13:31 UTC (1 year ago):

TAF ETSH 121324Z 1213/1313 15010KT 9999 NSW FEW070 BECMG 1214/1216 26008G18KT 9999 NSW BKN050 TEMPO 1214/1217 27015G35KT 2000 TSRA BKN010 BKN050CB PROB30 1217/1223 27020G45KT 1000 TSRAGR BKN005 BKN040CB